sensor_id;sensor_type;location;lat;lon;timestamp;P1;durP1;ratioP1;P2;durP2;ratioP2
6422;SDS011;3244;42.708;23.288;2023-06-19T00:00:41;4.97;;;4.68;;
6422;SDS011;3244;42.708;23.288;2023-06-19T00:03:08;5.40;;;4.88;;
6422;SDS011;3244;42.708;23.288;2023-06-19T00:05:35;6.63;;;4.93;;
6422;SDS011;3244;42.708;23.288;2023-06-19T00:08:02;5.50;;;4.95;;
6422;SDS011;3244;42.708;23.288;2023-06-19T00:10:31;5.18;;;4.82;;
6422;SDS011;3244;42.708;23.288;2023-06-19T00:12:59;5.82;;;5.13;;
6422;SDS011;3244;42.708;23.288;2023-06-19T00:15:26;5.88;;;4.97;;
6422;SDS011;3244;42.708;23.288;2023-06-19T00:17:54;5.32;;;4.88;;
6422;SDS011;3244;42.708;23.288;2023-06-19T00:20:21;5.25;;;4.72;;
6422;SDS011;3244;42.708;23.288;2023-06-19T00:22:48;6.28;;;4.88;;
6422;SDS011;3244;42.708;23.288;2023-06-19T00:25:16;5.25;;;4.78;;
6422;SDS011;3244;42.708;23.288;2023-06-19T00:27:43;5.43;;;4.93;;
6422;SDS011;3244;42.708;23.288;2023-06-19T00:30:11;4.80;;;4.40;;
6422;SDS011;3244;42.708;23.288;2023-06-19T00:32:38;6.15;;;5.53;;
6422;SDS011;3244;42.708;23.288;2023-06-19T00:35:11;6.00;;;4.82;;
6422;SDS011;3244;42.708;23.288;2023-06-19T00:37:39;4.93;;;4.53;;
6422;SDS011;3244;42.708;23.288;2023-06-19T00:40:10;4.68;;;4.38;;
6422;SDS011;3244;42.708;23.288;2023-06-19T00:42:42;4.60;;;4.20;;
6422;SDS011;3244;42.708;23.288;2023-06-19T00:45:09;4.55;;;4.25;;
6422;SDS011;3244;42.708;23.288;2023-06-19T00:47:37;8.35;;;4.78;;
6422;SDS011;3244;42.708;23.288;2023-06-19T00:50:05;5.03;;;4.72;;
6422;SDS011;3244;42.708;23.288;2023-06-19T00:52:32;5.38;;;4.85;;
6422;SDS011;3244;42.708;23.288;2023-06-19T00:55:00;4.85;;;4.55;;
6422;SDS011;3244;42.708;23.288;2023-06-19T00:57:27;4.88;;;4.57;;
6422;SDS011;3244;42.708;23.288;2023-06-19T00:59:54;5.95;;;4.80;;
6422;SDS011;3244;42.708;23.288;2023-06-19T01:02:21;5.07;;;4.68;;
6422;SDS011;3244;42.708;23.288;2023-06-19T01:04:50;5.00;;;4.68;;
6422;SDS011;3244;42.708;23.288;2023-06-19T01:07:19;6.20;;;5.00;;
6422;SDS011;3244;42.708;23.288;2023-06-19T01:09:55;5.28;;;4.72;;
6422;SDS011;3244;42.708;23.288;2023-06-19T01:12:30;5.13;;;4.68;;
6422;SDS011;3244;42.708;23.288;2023-06-19T01:15:03;4.72;;;4.32;;
6422;SDS011;3244;42.708;23.288;2023-06-19T01:17:31;4.75;;;4.43;;
6422;SDS011;3244;42.708;23.288;2023-06-19T01:20:00;5.00;;;4.60;;
6422;SDS011;3244;42.708;23.288;2023-06-19T01:22:33;5.63;;;5.13;;
6422;SDS011;3244;42.708;23.288;2023-06-19T01:25:00;5.85;;;5.50;;
6422;SDS011;3244;42.708;23.288;2023-06-19T01:27:26;5.00;;;4.70;;
6422;SDS011;3244;42.708;23.288;2023-06-19T01:29:56;4.95;;;4.38;;
6422;SDS011;3244;42.708;23.288;2023-06-19T01:32:24;5.65;;;4.70;;
6422;SDS011;3244;42.708;23.288;2023-06-19T01:34:57;5.20;;;4.65;;
6422;SDS011;3244;42.708;23.288;2023-06-19T01:37:27;4.68;;;4.15;;
6422;SDS011;3244;42.708;23.288;2023-06-19T01:39:59;4.93;;;4.63;;
6422;SDS011;3244;42.708;23.288;2023-06-19T01:42:34;4.60;;;4.30;;
6422;SDS011;3244;42.708;23.288;2023-06-19T01:45:04;5.05;;;4.57;;
6422;SDS011;3244;42.708;23.288;2023-06-19T01:47:31;5.40;;;4.90;;
6422;SDS011;3244;42.708;23.288;2023-06-19T01:49:58;4.38;;;4.15;;
6422;SDS011;3244;42.708;23.288;2023-06-19T01:52:25;5.72;;;5.18;;
6422;SDS011;3244;42.708;23.288;2023-06-19T01:54:52;5.07;;;4.65;;
6422;SDS011;3244;42.708;23.288;2023-06-19T01:57:20;5.95;;;4.82;;
6422;SDS011;3244;42.708;23.288;2023-06-19T01:59:47;5.53;;;4.90;;
6422;SDS011;3244;42.708;23.288;2023-06-19T02:02:14;5.78;;;5.20;;
6422;SDS011;3244;42.708;23.288;2023-06-19T02:04:40;7.82;;;4.78;;
6422;SDS011;3244;42.708;23.288;2023-06-19T02:07:07;5.30;;;4.22;;
6422;SDS011;3244;42.708;23.288;2023-06-19T02:09:34;5.00;;;4.70;;
6422;SDS011;3244;42.708;23.288;2023-06-19T02:12:00;4.95;;;4.47;;
6422;SDS011;3244;42.708;23.288;2023-06-19T02:14:28;8.75;;;5.30;;
6422;SDS011;3244;42.708;23.288;2023-06-19T02:16:55;5.20;;;4.90;;
6422;SDS011;3244;42.708;23.288;2023-06-19T02:19:22;4.85;;;4.55;;
6422;SDS011;3244;42.708;23.288;2023-06-19T02:21:49;6.55;;;4.38;;
6422;SDS011;3244;42.708;23.288;2023-06-19T02:24:15;5.65;;;5.25;;
6422;SDS011;3244;42.708;23.288;2023-06-19T02:26:42;6.57;;;4.63;;
6422;SDS011;3244;42.708;23.288;2023-06-19T02:29:10;5.22;;;4.72;;
6422;SDS011;3244;42.708;23.288;2023-06-19T02:31:38;5.45;;;5.05;;
6422;SDS011;3244;42.708;23.288;2023-06-19T02:34:04;5.78;;;5.38;;
6422;SDS011;3244;42.708;23.288;2023-06-19T02:36:31;6.10;;;5.22;;
6422;SDS011;3244;42.708;23.288;2023-06-19T02:38:58;5.45;;;5.05;;
6422;SDS011;3244;42.708;23.288;2023-06-19T02:41:25;5.40;;;5.10;;
6422;SDS011;3244;42.708;23.288;2023-06-19T02:43:51;5.85;;;5.32;;
6422;SDS011;3244;42.708;23.288;2023-06-19T02:46:18;5.95;;;5.30;;
6422;SDS011;3244;42.708;23.288;2023-06-19T02:48:46;7.70;;;5.53;;
6422;SDS011;3244;42.708;23.288;2023-06-19T02:51:13;7.40;;;5.43;;
6422;SDS011;3244;42.708;23.288;2023-06-19T02:53:39;6.03;;;5.53;;
6422;SDS011;3244;42.708;23.288;2023-06-19T02:56:06;8.82;;;5.43;;
6422;SDS011;3244;42.708;23.288;2023-06-19T02:58:33;5.88;;;5.32;;
6422;SDS011;3244;42.708;23.288;2023-06-19T03:01:02;5.82;;;5.15;;
6422;SDS011;3244;42.708;23.288;2023-06-19T03:03:32;5.57;;;5.10;;
6422;SDS011;3244;42.708;23.288;2023-06-19T03:06:04;8.00;;;5.57;;
6422;SDS011;3244;42.708;23.288;2023-06-19T03:08:32;10.20;;;6.07;;
6422;SDS011;3244;42.708;23.288;2023-06-19T03:10:59;5.90;;;5.38;;
6422;SDS011;3244;42.708;23.288;2023-06-19T03:13:29;6.88;;;6.20;;
6422;SDS011;3244;42.708;23.288;2023-06-19T03:15:56;5.90;;;5.50;;
6422;SDS011;3244;42.708;23.288;2023-06-19T03:18:22;7.00;;;5.30;;
6422;SDS011;3244;42.708;23.288;2023-06-19T03:20:49;5.95;;;5.30;;
6422;SDS011;3244;42.708;23.288;2023-06-19T03:23:17;8.10;;;5.28;;
6422;SDS011;3244;42.708;23.288;2023-06-19T03:25:44;6.30;;;5.68;;
6422;SDS011;3244;42.708;23.288;2023-06-19T03:28:10;6.22;;;5.53;;
6422;SDS011;3244;42.708;23.288;2023-06-19T03:30:37;6.10;;;5.60;;
6422;SDS011;3244;42.708;23.288;2023-06-19T03:33:04;6.65;;;5.72;;
6422;SDS011;3244;42.708;23.288;2023-06-19T03:35:30;7.43;;;5.97;;
6422;SDS011;3244;42.708;23.288;2023-06-19T03:37:57;4.40;;;4.10;;
6422;SDS011;3244;42.708;23.288;2023-06-19T03:40:25;4.90;;;4.50;;
6422;SDS011;3244;42.708;23.288;2023-06-19T03:42:53;10.43;;;4.38;;
6422;SDS011;3244;42.708;23.288;2023-06-19T03:45:19;5.22;;;4.72;;
6422;SDS011;3244;42.708;23.288;2023-06-19T03:47:46;7.00;;;3.65;;
6422;SDS011;3244;42.708;23.288;2023-06-19T03:50:13;4.60;;;4.20;;
6422;SDS011;3244;42.708;23.288;2023-06-19T03:52:39;4.72;;;4.43;;
6422;SDS011;3244;42.708;23.288;2023-06-19T03:55:06;5.15;;;4.38;;
6422;SDS011;3244;42.708;23.288;2023-06-19T03:57:35;4.60;;;4.40;;
6422;SDS011;3244;42.708;23.288;2023-06-19T04:00:01;4.85;;;4.45;;
6422;SDS011;3244;42.708;23.288;2023-06-19T04:02:32;5.93;;;4.78;;
6422;SDS011;3244;42.708;23.288;2023-06-19T04:04:59;5.50;;;5.10;;
6422;SDS011;3244;42.708;23.288;2023-06-19T04:07:26;4.85;;;4.55;;
6422;SDS011;3244;42.708;23.288;2023-06-19T04:09:52;11.43;;;5.18;;
6422;SDS011;3244;42.708;23.288;2023-06-19T04:12:19;5.50;;;5.18;;
6422;SDS011;3244;42.708;23.288;2023-06-19T04:14:47;11.82;;;10.63;;
6422;SDS011;3244;42.708;23.288;2023-06-19T04:17:14;17.40;;;13.25;;
6422;SDS011;3244;42.708;23.288;2023-06-19T04:19:41;8.95;;;7.32;;
6422;SDS011;3244;42.708;23.288;2023-06-19T04:22:08;6.70;;;5.45;;
6422;SDS011;3244;42.708;23.288;2023-06-19T04:24:35;5.28;;;4.85;;
6422;SDS011;3244;42.708;23.288;2023-06-19T04:27:02;4.65;;;4.35;;
6422;SDS011;3244;42.708;23.288;2023-06-19T04:29:29;7.03;;;5.05;;
6422;SDS011;3244;42.708;23.288;2023-06-19T04:31:58;7.78;;;4.72;;
6422;SDS011;3244;42.708;23.288;2023-06-19T04:34:24;18.33;;;13.23;;
6422;SDS011;3244;42.708;23.288;2023-06-19T04:36:51;16.02;;;14.15;;
6422;SDS011;3244;42.708;23.288;2023-06-19T04:39:18;9.73;;;7.43;;
6422;SDS011;3244;42.708;23.288;2023-06-19T04:41:46;7.60;;;6.90;;
6422;SDS011;3244;42.708;23.288;2023-06-19T04:44:12;5.57;;;5.05;;
6422;SDS011;3244;42.708;23.288;2023-06-19T04:46:40;8.27;;;7.57;;
6422;SDS011;3244;42.708;23.288;2023-06-19T04:49:08;13.68;;;10.32;;
6422;SDS011;3244;42.708;23.288;2023-06-19T04:51:35;6.28;;;5.45;;
6422;SDS011;3244;42.708;23.288;2023-06-19T04:54:02;6.60;;;4.85;;
6422;SDS011;3244;42.708;23.288;2023-06-19T04:56:29;7.55;;;4.95;;
6422;SDS011;3244;42.708;23.288;2023-06-19T04:58:55;5.30;;;4.90;;
6422;SDS011;3244;42.708;23.288;2023-06-19T05:01:24;5.53;;;5.05;;
6422;SDS011;3244;42.708;23.288;2023-06-19T05:03:53;6.10;;;4.70;;
6422;SDS011;3244;42.708;23.288;2023-06-19T05:06:22;5.20;;;4.75;;
6422;SDS011;3244;42.708;23.288;2023-06-19T05:08:49;4.32;;;3.92;;
6422;SDS011;3244;42.708;23.288;2023-06-19T05:11:16;4.30;;;3.70;;
6422;SDS011;3244;42.708;23.288;2023-06-19T05:13:43;3.95;;;3.55;;
6422;SDS011;3244;42.708;23.288;2023-06-19T05:16:10;4.65;;;4.20;;
6422;SDS011;3244;42.708;23.288;2023-06-19T05:18:41;4.07;;;3.88;;
6422;SDS011;3244;42.708;23.288;2023-06-19T05:21:08;6.80;;;4.40;;
6422;SDS011;3244;42.708;23.288;2023-06-19T05:23:36;4.38;;;4.05;;
6422;SDS011;3244;42.708;23.288;2023-06-19T05:26:03;3.92;;;3.72;;
6422;SDS011;3244;42.708;23.288;2023-06-19T05:28:30;3.97;;;3.78;;
6422;SDS011;3244;42.708;23.288;2023-06-19T05:30:56;3.78;;;3.58;;
6422;SDS011;3244;42.708;23.288;2023-06-19T05:33:23;5.43;;;4.30;;
6422;SDS011;3244;42.708;23.288;2023-06-19T05:35:50;5.85;;;3.88;;
6422;SDS011;3244;42.708;23.288;2023-06-19T05:38:18;4.35;;;4.00;;
6422;SDS011;3244;42.708;23.288;2023-06-19T05:40:47;6.40;;;3.97;;
6422;SDS011;3244;42.708;23.288;2023-06-19T05:43:13;4.22;;;3.67;;
6422;SDS011;3244;42.708;23.288;2023-06-19T05:45:40;4.15;;;3.95;;
6422;SDS011;3244;42.708;23.288;2023-06-19T05:48:07;6.85;;;3.75;;
6422;SDS011;3244;42.708;23.288;2023-06-19T05:50:33;4.43;;;4.13;;
6422;SDS011;3244;42.708;23.288;2023-06-19T05:53:00;4.88;;;3.80;;
6422;SDS011;3244;42.708;23.288;2023-06-19T05:55:27;6.25;;;3.58;;
6422;SDS011;3244;42.708;23.288;2023-06-19T05:57:55;3.47;;;3.28;;
6422;SDS011;3244;42.708;23.288;2023-06-19T06:00:22;4.22;;;3.85;;
6422;SDS011;3244;42.708;23.288;2023-06-19T06:02:48;4.63;;;3.47;;
6422;SDS011;3244;42.708;23.288;2023-06-19T06:05:16;3.47;;;3.30;;
6422;SDS011;3244;42.708;23.288;2023-06-19T06:07:44;3.20;;;3.10;;
6422;SDS011;3244;42.708;23.288;2023-06-19T06:10:10;3.60;;;3.40;;
6422;SDS011;3244;42.708;23.288;2023-06-19T06:12:37;3.53;;;3.20;;
6422;SDS011;3244;42.708;23.288;2023-06-19T06:15:06;6.28;;;3.58;;
6422;SDS011;3244;42.708;23.288;2023-06-19T06:17:33;4.07;;;3.70;;
6422;SDS011;3244;42.708;23.288;2023-06-19T06:20:00;3.47;;;3.28;;
6422;SDS011;3244;42.708;23.288;2023-06-19T06:22:26;3.47;;;3.08;;
6422;SDS011;3244;42.708;23.288;2023-06-19T06:24:53;4.45;;;3.00;;
6422;SDS011;3244;42.708;23.288;2023-06-19T06:27:20;5.43;;;3.88;;
6422;SDS011;3244;42.708;23.288;2023-06-19T06:29:46;4.15;;;3.90;;
6422;SDS011;3244;42.708;23.288;2023-06-19T06:32:15;5.20;;;3.95;;
6422;SDS011;3244;42.708;23.288;2023-06-19T06:34:41;4.00;;;3.80;;
6422;SDS011;3244;42.708;23.288;2023-06-19T06:37:08;4.63;;;3.70;;
6422;SDS011;3244;42.708;23.288;2023-06-19T06:39:34;3.88;;;3.67;;
6422;SDS011;3244;42.708;23.288;2023-06-19T06:42:01;3.83;;;3.50;;
6422;SDS011;3244;42.708;23.288;2023-06-19T06:44:28;3.40;;;3.30;;
6422;SDS011;3244;42.708;23.288;2023-06-19T06:46:55;3.47;;;3.38;;
6422;SDS011;3244;42.708;23.288;2023-06-19T06:49:23;3.70;;;3.50;;
6422;SDS011;3244;42.708;23.288;2023-06-19T06:51:49;4.20;;;3.13;;
6422;SDS011;3244;42.708;23.288;2023-06-19T06:54:16;3.90;;;3.67;;
6422;SDS011;3244;42.708;23.288;2023-06-19T06:56:43;3.88;;;3.40;;
6422;SDS011;3244;42.708;23.288;2023-06-19T06:59:12;4.05;;;3.65;;
6422;SDS011;3244;42.708;23.288;2023-06-19T07:01:41;4.07;;;3.78;;
6422;SDS011;3244;42.708;23.288;2023-06-19T07:04:07;3.67;;;3.38;;
6422;SDS011;3244;42.708;23.288;2023-06-19T07:06:35;3.80;;;3.60;;
6422;SDS011;3244;42.708;23.288;2023-06-19T07:09:02;3.70;;;3.50;;
6422;SDS011;3244;42.708;23.288;2023-06-19T07:11:29;3.70;;;3.40;;
6422;SDS011;3244;42.708;23.288;2023-06-19T07:13:55;4.22;;;3.83;;
6422;SDS011;3244;42.708;23.288;2023-06-19T07:16:22;3.60;;;3.40;;
6422;SDS011;3244;42.708;23.288;2023-06-19T07:18:49;3.80;;;3.60;;
6422;SDS011;3244;42.708;23.288;2023-06-19T07:21:15;3.53;;;3.33;;
6422;SDS011;3244;42.708;23.288;2023-06-19T07:23:44;3.78;;;3.58;;
6422;SDS011;3244;42.708;23.288;2023-06-19T07:26:13;4.50;;;3.45;;
6422;SDS011;3244;42.708;23.288;2023-06-19T07:28:40;4.15;;;3.85;;
6422;SDS011;3244;42.708;23.288;2023-06-19T07:31:06;3.28;;;3.08;;
6422;SDS011;3244;42.708;23.288;2023-06-19T07:33:33;3.80;;;3.60;;
6422;SDS011;3244;42.708;23.288;2023-06-19T07:36:00;3.78;;;3.63;;
6422;SDS011;3244;42.708;23.288;2023-06-19T07:38:27;4.07;;;3.97;;
6422;SDS011;3244;42.708;23.288;2023-06-19T07:40:56;6.28;;;2.83;;
6422;SDS011;3244;42.708;23.288;2023-06-19T07:43:22;3.58;;;3.38;;
6422;SDS011;3244;42.708;23.288;2023-06-19T07:45:49;5.03;;;3.22;;
6422;SDS011;3244;42.708;23.288;2023-06-19T07:48:16;17.75;;;16.25;;
6422;SDS011;3244;42.708;23.288;2023-06-19T07:50:43;8.57;;;7.97;;
6422;SDS011;3244;42.708;23.288;2023-06-19T07:53:11;9.60;;;6.75;;
6422;SDS011;3244;42.708;23.288;2023-06-19T07:55:37;7.55;;;7.15;;
6422;SDS011;3244;42.708;23.288;2023-06-19T07:58:05;8.70;;;8.05;;
6422;SDS011;3244;42.708;23.288;2023-06-19T08:00:32;8.50;;;7.72;;
6422;SDS011;3244;42.708;23.288;2023-06-19T08:02:59;6.85;;;6.45;;
6422;SDS011;3244;42.708;23.288;2023-06-19T08:05:25;5.57;;;5.28;;
6422;SDS011;3244;42.708;23.288;2023-06-19T08:07:52;6.20;;;5.80;;
6422;SDS011;3244;42.708;23.288;2023-06-19T08:10:19;6.43;;;5.82;;
6422;SDS011;3244;42.708;23.288;2023-06-19T08:12:45;8.88;;;6.20;;
6422;SDS011;3244;42.708;23.288;2023-06-19T08:15:14;8.02;;;6.00;;
6422;SDS011;3244;42.708;23.288;2023-06-19T08:17:40;7.55;;;5.13;;
6422;SDS011;3244;42.708;23.288;2023-06-19T08:20:08;8.65;;;5.70;;
6422;SDS011;3244;42.708;23.288;2023-06-19T08:22:35;4.10;;;3.67;;
6422;SDS011;3244;42.708;23.288;2023-06-19T08:25:02;4.70;;;4.40;;
6422;SDS011;3244;42.708;23.288;2023-06-19T08:27:30;6.88;;;4.13;;
6422;SDS011;3244;42.708;23.288;2023-06-19T08:29:56;5.32;;;3.45;;
6422;SDS011;3244;42.708;23.288;2023-06-19T08:32:24;6.35;;;4.00;;
6422;SDS011;3244;42.708;23.288;2023-06-19T08:34:51;4.50;;;3.90;;
6422;SDS011;3244;42.708;23.288;2023-06-19T08:37:18;3.75;;;3.63;;
6422;SDS011;3244;42.708;23.288;2023-06-19T08:39:45;3.47;;;3.17;;
6422;SDS011;3244;42.708;23.288;2023-06-19T08:42:11;3.58;;;3.30;;
6422;SDS011;3244;42.708;23.288;2023-06-19T08:44:38;3.28;;;3.10;;
6422;SDS011;3244;42.708;23.288;2023-06-19T08:47:05;3.80;;;3.50;;
6422;SDS011;3244;42.708;23.288;2023-06-19T08:49:34;3.00;;;2.80;;
6422;SDS011;3244;42.708;23.288;2023-06-19T08:52:01;4.38;;;3.45;;
6422;SDS011;3244;42.708;23.288;2023-06-19T08:54:29;3.78;;;3.15;;
6422;SDS011;3244;42.708;23.288;2023-06-19T08:56:55;3.72;;;3.53;;
6422;SDS011;3244;42.708;23.288;2023-06-19T08:59:25;4.07;;;3.63;;
6422;SDS011;3244;42.708;23.288;2023-06-19T09:01:54;3.78;;;3.47;;
6422;SDS011;3244;42.708;23.288;2023-06-19T09:04:21;3.55;;;3.35;;
6422;SDS011;3244;42.708;23.288;2023-06-19T09:06:53;3.25;;;3.05;;
6422;SDS011;3244;42.708;23.288;2023-06-19T09:09:22;3.55;;;3.25;;
6422;SDS011;3244;42.708;23.288;2023-06-19T09:11:59;4.15;;;3.50;;
6422;SDS011;3244;42.708;23.288;2023-06-19T09:14:33;4.72;;;3.72;;
6422;SDS011;3244;42.708;23.288;2023-06-19T09:17:01;3.70;;;3.40;;
6422;SDS011;3244;42.708;23.288;2023-06-19T09:19:28;3.47;;;3.28;;
6422;SDS011;3244;42.708;23.288;2023-06-19T09:22:01;3.58;;;3.15;;
6422;SDS011;3244;42.708;23.288;2023-06-19T09:24:33;3.47;;;3.38;;
6422;SDS011;3244;42.708;23.288;2023-06-19T09:27:05;3.88;;;3.63;;
6422;SDS011;3244;42.708;23.288;2023-06-19T09:29:35;3.55;;;3.35;;
6422;SDS011;3244;42.708;23.288;2023-06-19T09:32:13;4.10;;;3.90;;
6422;SDS011;3244;42.708;23.288;2023-06-19T09:34:41;4.60;;;4.38;;
6422;SDS011;3244;42.708;23.288;2023-06-19T09:37:09;3.95;;;3.63;;
6422;SDS011;3244;42.708;23.288;2023-06-19T09:39:36;3.40;;;3.10;;
6422;SDS011;3244;42.708;23.288;2023-06-19T09:42:05;3.70;;;3.40;;
6422;SDS011;3244;42.708;23.288;2023-06-19T09:44:35;3.78;;;3.58;;
6422;SDS011;3244;42.708;23.288;2023-06-19T09:47:10;4.03;;;3.80;;
6422;SDS011;3244;42.708;23.288;2023-06-19T09:49:44;3.80;;;3.50;;
6422;SDS011;3244;42.708;23.288;2023-06-19T09:52:17;3.80;;;3.50;;
6422;SDS011;3244;42.708;23.288;2023-06-19T09:54:47;4.47;;;4.07;;
6422;SDS011;3244;42.708;23.288;2023-06-19T09:57:16;5.82;;;4.18;;
6422;SDS011;3244;42.708;23.288;2023-06-19T09:59:44;3.85;;;3.47;;
6422;SDS011;3244;42.708;23.288;2023-06-19T10:02:14;5.00;;;3.85;;
6422;SDS011;3244;42.708;23.288;2023-06-19T10:04:42;4.10;;;3.80;;
6422;SDS011;3244;42.708;23.288;2023-06-19T10:07:19;3.80;;;3.50;;
6422;SDS011;3244;42.708;23.288;2023-06-19T10:09:57;3.60;;;3.40;;
6422;SDS011;3244;42.708;23.288;2023-06-19T10:12:35;3.85;;;3.53;;
6422;SDS011;3244;42.708;23.288;2023-06-19T10:15:10;3.90;;;3.60;;
6422;SDS011;3244;42.708;23.288;2023-06-19T10:17:42;4.80;;;3.75;;
6422;SDS011;3244;42.708;23.288;2023-06-19T10:20:24;3.75;;;3.55;;
6422;SDS011;3244;42.708;23.288;2023-06-19T10:22:58;4.03;;;3.83;;
6422;SDS011;3244;42.708;23.288;2023-06-19T10:25:30;5.43;;;4.30;;
6422;SDS011;3244;42.708;23.288;2023-06-19T10:27:58;5.07;;;4.05;;
6422;SDS011;3244;42.708;23.288;2023-06-19T10:30:25;4.25;;;3.95;;
6422;SDS011;3244;42.708;23.288;2023-06-19T10:32:52;4.55;;;4.25;;
6422;SDS011;3244;42.708;23.288;2023-06-19T10:35:19;5.13;;;3.83;;
6422;SDS011;3244;42.708;23.288;2023-06-19T10:37:49;4.18;;;3.88;;
6422;SDS011;3244;42.708;23.288;2023-06-19T10:40:17;3.83;;;3.20;;
6422;SDS011;3244;42.708;23.288;2023-06-19T10:42:44;4.53;;;4.25;;
6422;SDS011;3244;42.708;23.288;2023-06-19T10:45:11;4.65;;;4.03;;
6422;SDS011;3244;42.708;23.288;2023-06-19T10:47:41;4.10;;;3.65;;
6422;SDS011;3244;42.708;23.288;2023-06-19T10:50:11;3.83;;;3.50;;
6422;SDS011;3244;42.708;23.288;2023-06-19T10:52:42;4.47;;;4.18;;
6422;SDS011;3244;42.708;23.288;2023-06-19T10:55:10;3.90;;;3.65;;
6422;SDS011;3244;42.708;23.288;2023-06-19T10:57:39;4.28;;;4.03;;
6422;SDS011;3244;42.708;23.288;2023-06-19T11:00:06;4.65;;;3.80;;
6422;SDS011;3244;42.708;23.288;2023-06-19T11:02:38;4.07;;;3.78;;
6422;SDS011;3244;42.708;23.288;2023-06-19T11:05:08;3.72;;;3.53;;
6422;SDS011;3244;42.708;23.288;2023-06-19T11:07:36;4.15;;;3.85;;
6422;SDS011;3244;42.708;23.288;2023-06-19T11:10:03;4.35;;;4.05;;
6422;SDS011;3244;42.708;23.288;2023-06-19T11:12:31;4.35;;;3.97;;
6422;SDS011;3244;42.708;23.288;2023-06-19T11:15:02;5.30;;;3.88;;
6422;SDS011;3244;42.708;23.288;2023-06-19T11:17:29;4.50;;;4.15;;
6422;SDS011;3244;42.708;23.288;2023-06-19T11:19:56;4.05;;;3.85;;
6422;SDS011;3244;42.708;23.288;2023-06-19T11:22:35;5.53;;;5.05;;
6422;SDS011;3244;42.708;23.288;2023-06-19T11:25:03;4.28;;;4.03;;
6422;SDS011;3244;42.708;23.288;2023-06-19T11:27:31;5.45;;;4.07;;
6422;SDS011;3244;42.708;23.288;2023-06-19T11:29:58;4.55;;;4.25;;
6422;SDS011;3244;42.708;23.288;2023-06-19T11:32:31;4.53;;;4.22;;
6422;SDS011;3244;42.708;23.288;2023-06-19T11:35:03;4.22;;;3.92;;
6422;SDS011;3244;42.708;23.288;2023-06-19T11:37:32;6.05;;;3.92;;
6422;SDS011;3244;42.708;23.288;2023-06-19T11:39:59;4.10;;;3.80;;
6422;SDS011;3244;42.708;23.288;2023-06-19T11:42:26;5.93;;;4.05;;
6422;SDS011;3244;42.708;23.288;2023-06-19T11:44:55;4.57;;;4.18;;
6422;SDS011;3244;42.708;23.288;2023-06-19T11:47:23;4.70;;;4.38;;
6422;SDS011;3244;42.708;23.288;2023-06-19T11:49:51;5.55;;;4.25;;
6422;SDS011;3244;42.708;23.288;2023-06-19T11:52:18;4.03;;;3.72;;
6422;SDS011;3244;42.708;23.288;2023-06-19T11:54:44;3.85;;;3.60;;
6422;SDS011;3244;42.708;23.288;2023-06-19T11:57:11;4.45;;;4.00;;
6422;SDS011;3244;42.708;23.288;2023-06-19T11:59:38;7.25;;;4.07;;
6422;SDS011;3244;42.708;23.288;2023-06-19T12:02:05;3.97;;;3.78;;
6422;SDS011;3244;42.708;23.288;2023-06-19T12:04:32;3.97;;;3.78;;
6422;SDS011;3244;42.708;23.288;2023-06-19T12:07:01;4.32;;;3.92;;
6422;SDS011;3244;42.708;23.288;2023-06-19T12:09:29;4.45;;;4.15;;
6422;SDS011;3244;42.708;23.288;2023-06-19T12:11:56;4.88;;;4.47;;
6422;SDS011;3244;42.708;23.288;2023-06-19T12:14:23;4.80;;;4.50;;
6422;SDS011;3244;42.708;23.288;2023-06-19T12:16:51;6.15;;;4.20;;
6422;SDS011;3244;42.708;23.288;2023-06-19T12:19:18;5.72;;;3.83;;
6422;SDS011;3244;42.708;23.288;2023-06-19T12:21:45;4.45;;;4.25;;
6422;SDS011;3244;42.708;23.288;2023-06-19T12:24:13;4.43;;;3.88;;
6422;SDS011;3244;42.708;23.288;2023-06-19T12:26:39;4.57;;;3.83;;
6422;SDS011;3244;42.708;23.288;2023-06-19T12:29:06;5.32;;;4.38;;
6422;SDS011;3244;42.708;23.288;2023-06-19T12:31:33;5.32;;;4.82;;
6422;SDS011;3244;42.708;23.288;2023-06-19T12:34:01;5.63;;;4.10;;
6422;SDS011;3244;42.708;23.288;2023-06-19T12:36:28;6.50;;;4.18;;
6422;SDS011;3244;42.708;23.288;2023-06-19T12:38:58;4.05;;;3.75;;
6422;SDS011;3244;42.708;23.288;2023-06-19T12:41:26;4.65;;;4.35;;
6422;SDS011;3244;42.708;23.288;2023-06-19T12:43:53;3.92;;;3.70;;
6422;SDS011;3244;42.708;23.288;2023-06-19T12:46:20;3.50;;;3.30;;
6422;SDS011;3244;42.708;23.288;2023-06-19T12:48:46;4.05;;;3.80;;
6422;SDS011;3244;42.708;23.288;2023-06-19T12:51:15;4.32;;;4.13;;
6422;SDS011;3244;42.708;23.288;2023-06-19T12:53:42;4.53;;;4.00;;
6422;SDS011;3244;42.708;23.288;2023-06-19T12:56:09;4.40;;;4.10;;
6422;SDS011;3244;42.708;23.288;2023-06-19T12:58:37;4.53;;;3.70;;
6422;SDS011;3244;42.708;23.288;2023-06-19T13:01:04;4.00;;;3.80;;
6422;SDS011;3244;42.708;23.288;2023-06-19T13:03:31;4.22;;;3.80;;
6422;SDS011;3244;42.708;23.288;2023-06-19T13:05:57;4.00;;;3.60;;
6422;SDS011;3244;42.708;23.288;2023-06-19T13:08:24;3.78;;;3.22;;
6422;SDS011;3244;42.708;23.288;2023-06-19T13:10:51;4.07;;;3.65;;
6422;SDS011;3244;42.708;23.288;2023-06-19T13:13:17;6.63;;;4.22;;
6422;SDS011;3244;42.708;23.288;2023-06-19T13:15:45;4.28;;;3.92;;
6422;SDS011;3244;42.708;23.288;2023-06-19T13:18:12;3.70;;;3.40;;
6422;SDS011;3244;42.708;23.288;2023-06-19T13:20:39;4.32;;;3.90;;
6422;SDS011;3244;42.708;23.288;2023-06-19T13:23:05;4.30;;;3.88;;
6422;SDS011;3244;42.708;23.288;2023-06-19T13:25:32;5.35;;;3.60;;
6422;SDS011;3244;42.708;23.288;2023-06-19T13:27:59;4.80;;;3.65;;
6422;SDS011;3244;42.708;23.288;2023-06-19T13:30:25;4.43;;;3.95;;
6422;SDS011;3244;42.708;23.288;2023-06-19T13:32:54;5.07;;;3.78;;
6422;SDS011;3244;42.708;23.288;2023-06-19T13:35:21;8.35;;;3.60;;
6422;SDS011;3244;42.708;23.288;2023-06-19T13:37:47;3.95;;;3.70;;
6422;SDS011;3244;42.708;23.288;2023-06-19T13:40:14;3.97;;;3.67;;
6422;SDS011;3244;42.708;23.288;2023-06-19T13:42:41;5.75;;;3.70;;
6422;SDS011;3244;42.708;23.288;2023-06-19T13:45:08;3.72;;;3.53;;
6422;SDS011;3244;42.708;23.288;2023-06-19T13:47:35;4.28;;;3.90;;
6422;SDS011;3244;42.708;23.288;2023-06-19T13:50:04;3.88;;;3.67;;
6422;SDS011;3244;42.708;23.288;2023-06-19T13:52:31;6.50;;;3.60;;
6422;SDS011;3244;42.708;23.288;2023-06-19T13:54:58;4.00;;;3.80;;
6422;SDS011;3244;42.708;23.288;2023-06-19T13:57:27;4.43;;;3.70;;
6422;SDS011;3244;42.708;23.288;2023-06-19T13:59:54;3.42;;;3.22;;
6422;SDS011;3244;42.708;23.288;2023-06-19T14:02:20;4.47;;;4.05;;
6422;SDS011;3244;42.708;23.288;2023-06-19T14:04:47;3.85;;;3.65;;
6422;SDS011;3244;42.708;23.288;2023-06-19T14:07:15;3.75;;;3.55;;
6422;SDS011;3244;42.708;23.288;2023-06-19T14:09:43;3.85;;;3.65;;
6422;SDS011;3244;42.708;23.288;2023-06-19T14:12:10;7.65;;;3.40;;
6422;SDS011;3244;42.708;23.288;2023-06-19T14:14:37;4.15;;;3.90;;
6422;SDS011;3244;42.708;23.288;2023-06-19T14:17:04;4.18;;;3.88;;
6422;SDS011;3244;42.708;23.288;2023-06-19T14:19:31;6.30;;;3.85;;
6422;SDS011;3244;42.708;23.288;2023-06-19T14:21:57;4.28;;;4.07;;
6422;SDS011;3244;42.708;23.288;2023-06-19T14:24:25;4.38;;;4.05;;
6422;SDS011;3244;42.708;23.288;2023-06-19T14:26:52;4.38;;;3.85;;
6422;SDS011;3244;42.708;23.288;2023-06-19T14:29:19;4.22;;;3.92;;
6422;SDS011;3244;42.708;23.288;2023-06-19T14:31:45;4.15;;;3.95;;
6422;SDS011;3244;42.708;23.288;2023-06-19T14:34:12;4.30;;;4.07;;
6422;SDS011;3244;42.708;23.288;2023-06-19T14:36:39;4.25;;;3.92;;
6422;SDS011;3244;42.708;23.288;2023-06-19T14:39:06;4.13;;;3.83;;
6422;SDS011;3244;42.708;23.288;2023-06-19T14:41:34;6.43;;;3.45;;
6422;SDS011;3244;42.708;23.288;2023-06-19T14:44:00;4.25;;;3.83;;
6422;SDS011;3244;42.708;23.288;2023-06-19T14:46:27;3.72;;;3.53;;
6422;SDS011;3244;42.708;23.288;2023-06-19T14:48:54;7.15;;;5.15;;
6422;SDS011;3244;42.708;23.288;2023-06-19T14:51:23;4.95;;;4.50;;
6422;SDS011;3244;42.708;23.288;2023-06-19T14:53:49;4.30;;;4.05;;
6422;SDS011;3244;42.708;23.288;2023-06-19T14:56:16;4.68;;;4.35;;
6422;SDS011;3244;42.708;23.288;2023-06-19T14:58:44;4.10;;;3.90;;
6422;SDS011;3244;42.708;23.288;2023-06-19T15:01:11;5.95;;;3.95;;
6422;SDS011;3244;42.708;23.288;2023-06-19T15:03:37;4.30;;;4.10;;